createdAt,value
2023-04-13T00:00:44.429Z,12.73
2023-04-13T00:03:18.870Z,12.76
2023-04-13T00:05:46.660Z,12.68
2023-04-13T00:08:13.733Z,12.70
2023-04-13T00:10:41.876Z,12.60
2023-04-13T00:13:10.241Z,12.59
2023-04-13T00:15:41.281Z,12.59
2023-04-13T00:18:08.960Z,12.63
2023-04-13T00:20:36.389Z,12.62
2023-04-13T00:23:03.417Z,12.62
2023-04-13T00:25:30.756Z,12.58
2023-04-13T00:27:57.597Z,12.56
2023-04-13T00:30:24.729Z,12.51
2023-04-13T00:32:52.094Z,12.52
2023-04-13T00:35:20.168Z,12.56
2023-04-13T00:37:49.893Z,12.53
2023-04-13T00:40:18.063Z,12.53
2023-04-13T00:42:46.226Z,12.51
2023-04-13T00:45:13.817Z,12.46
2023-04-13T00:47:41.959Z,12.46
2023-04-13T00:50:09.355Z,12.42
2023-04-13T00:52:38.368Z,12.38
2023-04-13T00:55:06.371Z,12.36
2023-04-13T00:57:33.958Z,12.36
2023-04-13T01:00:10.446Z,12.28
2023-04-13T01:02:42.450Z,12.27
2023-04-13T01:05:12.696Z,12.27
2023-04-13T01:07:47.384Z,12.28
2023-04-13T01:10:26.837Z,12.25
2023-04-13T01:13:27.258Z,12.20
2023-04-13T01:16:12.542Z,12.19
2023-04-13T01:18:40.445Z,12.15
2023-04-13T01:21:08.395Z,12.13
2023-04-13T01:24:05.188Z,12.13
2023-04-13T01:26:58.522Z,12.11
2023-04-13T01:29:26.196Z,12.10
2023-04-13T01:31:54.390Z,12.12
2023-04-13T01:34:23.314Z,12.10
2023-04-13T01:36:50.499Z,12.06
2023-04-13T01:39:20.984Z,12.07
2023-04-13T01:41:48.035Z,12.10
2023-04-13T01:44:14.905Z,12.12
2023-04-13T01:46:43.053Z,12.07
2023-04-13T01:49:10.343Z,11.99
2023-04-13T01:51:38.371Z,11.98
2023-04-13T01:54:12.806Z,12.00
2023-04-13T01:56:40.266Z,11.98
2023-04-13T01:59:07.128Z,11.96
2023-04-13T02:01:34.187Z,11.96
2023-04-13T02:04:03.110Z,11.89
2023-04-13T02:06:30.717Z,11.89
2023-04-13T02:08:57.630Z,11.91
2023-04-13T02:11:25.526Z,11.89
2023-04-13T02:13:53.171Z,11.91
2023-04-13T02:16:20.377Z,11.91
2023-04-13T02:18:47.347Z,11.85
2023-04-13T02:21:14.537Z,11.78
2023-04-13T02:23:41.376Z,11.84
2023-04-13T02:26:08.928Z,11.82
2023-04-13T02:28:35.829Z,11.79
2023-04-13T02:31:03.837Z,11.77
2023-04-13T02:33:31.848Z,11.74
2023-04-13T02:35:59.645Z,11.77
2023-04-13T02:38:28.102Z,11.78
2023-04-13T02:40:56.076Z,11.74
2023-04-13T02:43:22.890Z,11.74
2023-04-13T02:45:50.333Z,11.67
2023-04-13T02:48:17.176Z,11.63
2023-04-13T02:50:44.232Z,11.64
2023-04-13T02:53:11.042Z,11.65
2023-04-13T02:55:39.077Z,11.61
2023-04-13T02:58:06.626Z,11.62
2023-04-13T03:00:33.824Z,11.55
2023-04-13T03:03:03.481Z,11.59
2023-04-13T03:05:33.578Z,11.57
2023-04-13T03:08:00.371Z,11.54
2023-04-13T03:10:27.429Z,11.51
2023-04-13T03:12:54.177Z,11.48
2023-04-13T03:15:21.421Z,11.50
2023-04-13T03:17:48.290Z,11.46
2023-04-13T03:20:16.951Z,11.46
2023-04-13T03:22:45.289Z,11.48
2023-04-13T03:25:12.727Z,11.45
2023-04-13T03:27:39.610Z,11.39
2023-04-13T03:30:07.825Z,11.41
2023-04-13T03:32:34.789Z,11.39
2023-04-13T03:35:01.957Z,11.40
2023-04-13T03:37:32.349Z,11.35
2023-04-13T03:39:59.438Z,11.31
2023-04-13T03:42:26.275Z,11.30
2023-04-13T03:44:53.373Z,11.27
2023-04-13T03:47:20.457Z,11.26
2023-04-13T03:49:47.561Z,11.27
2023-04-13T03:52:14.328Z,11.22
2023-04-13T03:54:41.541Z,11.18
2023-04-13T03:57:08.396Z,11.23
2023-04-13T03:59:35.666Z,11.18
2023-04-13T04:02:05.355Z,11.14
2023-04-13T04:04:32.504Z,11.19
2023-04-13T04:06:59.440Z,11.09
2023-04-13T04:09:27.520Z,11.06
2023-04-13T04:11:54.304Z,11.04
2023-04-13T04:14:22.917Z,11.04
2023-04-13T04:16:49.718Z,11.01
2023-04-13T04:19:16.863Z,11.02
2023-04-13T04:21:47.103Z,11.01
2023-04-13T04:24:20.710Z,11.00
2023-04-13T04:26:50.173Z,10.94
2023-04-13T04:29:17.873Z,11.03
2023-04-13T04:31:44.749Z,11.02
2023-04-13T04:34:11.854Z,11.00
2023-04-13T04:36:41.716Z,11.00
2023-04-13T04:39:10.123Z,10.98
2023-04-13T04:41:37.988Z,10.93
2023-04-13T04:44:08.169Z,10.95
2023-04-13T04:46:38.654Z,10.95
2023-04-13T04:49:06.526Z,10.97
2023-04-13T04:51:34.109Z,10.91
2023-04-13T04:54:02.301Z,10.88
2023-04-13T04:56:29.403Z,10.95
2023-04-13T04:58:56.557Z,10.97
2023-04-13T05:01:26.546Z,10.93
2023-04-13T05:03:53.926Z,10.95
2023-04-13T05:06:20.769Z,10.92
2023-04-13T05:08:47.879Z,10.94
2023-04-13T05:11:14.681Z,10.91
2023-04-13T05:13:41.854Z,10.89
2023-04-13T05:16:10.716Z,10.93
2023-04-13T05:18:47.701Z,10.89
2023-04-13T05:21:15.044Z,10.90
2023-04-13T05:23:42.453Z,10.91
2023-04-13T05:26:10.213Z,10.88
2023-04-13T05:28:37.295Z,10.87
2023-04-13T05:31:08.746Z,10.88
2023-04-13T05:33:36.036Z,10.88
2023-04-13T05:36:03.551Z,10.92
2023-04-13T05:38:31.729Z,10.88
2023-04-13T05:40:58.759Z,10.91
2023-04-13T05:43:26.774Z,10.92
2023-04-13T05:45:53.646Z,10.89
2023-04-13T05:48:21.557Z,10.88
2023-04-13T05:50:48.355Z,10.85
2023-04-13T05:53:15.696Z,10.85
2023-04-13T05:55:43.035Z,10.93
2023-04-13T05:58:11.146Z,11.07
2023-04-13T06:00:38.866Z,11.12
2023-04-13T06:03:07.100Z,11.14
2023-04-13T06:05:35.576Z,11.16
2023-04-13T06:08:03.028Z,11.19
2023-04-13T06:10:29.811Z,11.20
2023-04-13T06:12:56.907Z,11.20
2023-04-13T06:15:23.963Z,11.26
2023-04-13T06:17:52.399Z,11.32
2023-04-13T06:20:20.322Z,11.35
2023-04-13T06:22:47.817Z,11.42
2023-04-13T06:25:15.072Z,11.48
2023-04-13T06:27:43.568Z,11.55
2023-04-13T06:30:10.886Z,11.57
2023-04-13T06:32:38.751Z,11.66
2023-04-13T06:35:06.109Z,11.72
2023-04-13T06:37:35.699Z,11.77
2023-04-13T06:40:15.927Z,11.77
2023-04-13T06:42:43.676Z,11.84
2023-04-13T06:45:11.264Z,11.91
2023-04-13T06:47:41.106Z,12.02
2023-04-13T06:50:09.494Z,12.09
2023-04-13T06:52:37.334Z,12.14
2023-04-13T06:55:04.919Z,12.23
2023-04-13T06:57:32.083Z,12.29
2023-04-13T06:59:58.851Z,12.34
2023-04-13T07:02:26.662Z,12.44
2023-04-13T07:04:53.751Z,12.52
2023-04-13T07:07:21.082Z,12.60
2023-04-13T07:09:47.856Z,12.67
2023-04-13T07:12:14.991Z,12.72
2023-04-13T07:14:41.851Z,12.81
2023-04-13T07:17:10.165Z,12.88
2023-04-13T07:19:39.077Z,12.94
2023-04-13T07:22:06.147Z,13.02
2023-04-13T07:24:33.961Z,13.07
2023-04-13T07:27:01.413Z,13.16
2023-04-13T07:29:28.262Z,13.27
2023-04-13T07:32:02.432Z,13.33
2023-04-13T07:34:29.715Z,13.45
2023-04-13T07:36:56.776Z,13.49
2023-04-13T07:39:23.601Z,13.60
2023-04-13T07:41:51.219Z,13.62
2023-04-13T07:44:18.037Z,13.66
2023-04-13T07:46:45.129Z,13.74
2023-04-13T07:49:11.959Z,13.76
2023-04-13T07:51:39.010Z,13.80
2023-04-13T07:54:05.797Z,13.90
2023-04-13T07:56:32.944Z,13.97
2023-04-13T07:58:59.956Z,14.03
2023-04-13T08:01:27.696Z,14.15
2023-04-13T08:03:54.629Z,14.22
2023-04-13T08:06:22.252Z,14.32
2023-04-13T08:08:49.169Z,14.39
2023-04-13T08:11:16.775Z,14.48
2023-04-13T08:13:43.709Z,14.60
2023-04-13T08:16:11.344Z,14.70
2023-04-13T08:18:38.431Z,14.74
2023-04-13T08:21:17.676Z,14.83
2023-04-13T08:23:44.599Z,14.93
2023-04-13T08:26:18.804Z,15.04
2023-04-13T08:28:48.494Z,15.21
2023-04-13T08:31:15.963Z,15.27
2023-04-13T08:33:43.666Z,15.37
2023-04-13T08:36:10.834Z,15.47
2023-04-13T08:38:37.700Z,15.57
2023-04-13T08:41:04.934Z,15.69
2023-04-13T08:43:33.409Z,15.77
2023-04-13T08:46:00.800Z,15.91
2023-04-13T08:48:30.285Z,16.03
2023-04-13T08:51:01.699Z,16.12
2023-04-13T08:53:29.964Z,16.22
2023-04-13T08:55:58.179Z,16.29
2023-04-13T08:58:25.031Z,16.40
2023-04-13T09:00:52.246Z,16.50
2023-04-13T09:03:23.506Z,16.58
2023-04-13T09:06:00.233Z,16.70
2023-04-13T09:08:27.843Z,16.82
2023-04-13T09:10:57.204Z,16.92
2023-04-13T09:13:24.059Z,17.03
2023-04-13T09:15:51.297Z,17.14
2023-04-13T09:18:18.217Z,17.27
2023-04-13T09:20:55.730Z,17.35
2023-04-13T09:23:22.643Z,17.45
2023-04-13T09:25:50.463Z,17.55
2023-04-13T09:28:18.442Z,17.66
2023-04-13T09:30:46.343Z,17.74
2023-04-13T09:33:13.957Z,17.83
2023-04-13T09:35:41.632Z,17.93
2023-04-13T09:38:08.955Z,18.08
2023-04-13T09:40:41.056Z,18.16
2023-04-13T09:43:09.685Z,18.16
2023-04-13T09:45:41.914Z,18.28
2023-04-13T09:48:21.759Z,18.38
2023-04-13T09:51:02.062Z,18.52
2023-04-13T09:53:47.288Z,18.58
2023-04-13T09:56:14.542Z,18.71
2023-04-13T09:58:45.727Z,18.79
2023-04-13T10:01:15.334Z,18.89
2023-04-13T10:03:42.630Z,19.04
2023-04-13T10:06:09.880Z,19.09
2023-04-13T10:08:40.732Z,19.21
2023-04-13T10:11:10.749Z,19.28
2023-04-13T10:13:41.526Z,19.37
2023-04-13T10:16:15.206Z,19.47
2023-04-13T10:19:12.420Z,19.58
2023-04-13T10:21:40.728Z,19.65
2023-04-13T10:24:12.251Z,19.69
2023-04-13T10:26:41.081Z,19.75
2023-04-13T10:29:08.509Z,19.81
2023-04-13T10:31:48.915Z,19.85
2023-04-13T10:34:32.336Z,19.91
2023-04-13T10:37:03.871Z,19.97
2023-04-13T10:39:32.305Z,19.97
2023-04-13T10:42:18.171Z,20.07
2023-04-13T10:44:53.035Z,20.12
2023-04-13T10:47:21.203Z,20.15
2023-04-13T10:49:48.872Z,20.17
2023-04-13T10:52:16.321Z,20.24
2023-04-13T10:54:43.370Z,20.25
2023-04-13T10:57:11.298Z,20.27
2023-04-13T10:59:56.341Z,20.35
2023-04-13T11:02:26.343Z,20.34
2023-04-13T11:04:53.553Z,20.34
2023-04-13T11:07:23.400Z,20.37
2023-04-13T11:09:53.155Z,20.38
2023-04-13T11:12:20.501Z,20.37
2023-04-13T11:14:47.836Z,20.39
2023-04-13T11:17:16.925Z,20.39
2023-04-13T11:19:49.814Z,20.38
2023-04-13T11:22:22.726Z,20.46
2023-04-13T11:24:51.005Z,20.47
2023-04-13T11:27:23.214Z,20.49
2023-04-13T11:30:06.881Z,20.50
2023-04-13T11:32:34.427Z,20.50
2023-04-13T11:35:15.130Z,20.45
2023-04-13T11:37:50.923Z,20.52
2023-04-13T11:40:21.495Z,20.50
2023-04-13T11:42:49.438Z,20.44
2023-04-13T11:45:16.482Z,20.49
2023-04-13T11:47:44.687Z,20.54
2023-04-13T11:50:14.149Z,20.53
2023-04-13T11:52:42.697Z,20.47
2023-04-13T11:55:21.697Z,20.44
2023-04-13T11:57:51.574Z,20.37
2023-04-13T12:00:24.722Z,20.34
2023-04-13T12:03:01.748Z,20.29
2023-04-13T12:05:31.325Z,20.27
2023-04-13T12:08:00.258Z,20.29
2023-04-13T12:10:37.449Z,20.29
2023-04-13T12:13:20.150Z,20.21
2023-04-13T12:16:06.212Z,20.22
2023-04-13T12:18:44.012Z,20.12
2023-04-13T12:21:17.868Z,20.07
2023-04-13T12:23:55.177Z,20.02
2023-04-13T12:28:55.454Z,19.94
2023-04-13T12:31:22.241Z,19.87
2023-04-13T12:33:49.386Z,19.80
2023-04-13T12:36:16.554Z,19.78
2023-04-13T12:38:43.741Z,19.76
2023-04-13T12:41:10.980Z,19.69
2023-04-13T12:43:38.017Z,19.57
2023-04-13T12:46:04.942Z,19.57
2023-04-13T12:48:32.084Z,19.50
2023-04-13T12:50:58.989Z,19.42
2023-04-13T12:53:26.352Z,19.33
2023-04-13T12:55:53.325Z,19.35
2023-04-13T12:58:20.570Z,19.28
2023-04-13T13:00:47.563Z,19.15
2023-04-13T13:03:15.304Z,19.08
2023-04-13T13:05:42.886Z,19.02
2023-04-13T13:08:10.001Z,18.91
2023-04-13T13:10:37.362Z,18.87
2023-04-13T13:13:06.215Z,18.89
2023-04-13T13:15:33.380Z,18.69
2023-04-13T13:18:04.549Z,18.62
2023-04-13T13:20:31.551Z,18.65
2023-04-13T13:22:58.702Z,18.55
2023-04-13T13:25:25.560Z,18.43
2023-04-13T13:30:22.647Z,18.43
2023-04-13T13:32:49.861Z,18.42
2023-04-13T13:35:16.798Z,18.35
2023-04-13T13:37:44.020Z,18.31
2023-04-13T13:40:13.612Z,18.30
2023-04-13T13:42:51.313Z,18.14
2023-04-13T13:45:18.917Z,18.16
2023-04-13T13:47:53.509Z,18.20
2023-04-13T13:50:21.757Z,18.17
2023-04-13T13:53:02.311Z,18.10
2023-04-13T13:55:29.681Z,18.04
2023-04-13T13:57:57.202Z,18.07
2023-04-13T14:00:24.615Z,17.98
2023-04-13T14:02:52.037Z,17.95
2023-04-13T14:05:19.032Z,17.80
2023-04-13T14:07:46.288Z,17.83
2023-04-13T14:10:13.352Z,17.85
2023-04-13T14:12:43.946Z,17.85
2023-04-13T14:15:12.347Z,17.81
2023-04-13T14:17:39.703Z,17.74
2023-04-13T14:20:14.075Z,17.75
2023-04-13T14:22:41.845Z,17.80
2023-04-13T14:25:11.982Z,17.76
2023-04-13T14:27:39.192Z,17.78
2023-04-13T14:30:06.681Z,17.78
2023-04-13T14:32:33.882Z,17.81
2023-04-13T14:35:00.823Z,17.80
2023-04-13T14:37:28.191Z,17.77
2023-04-13T14:39:55.188Z,17.71
2023-04-13T14:42:42.848Z,17.67
2023-04-13T14:45:29.689Z,17.59
2023-04-13T14:47:56.906Z,17.58
2023-04-13T14:50:24.311Z,17.57
2023-04-13T14:52:52.438Z,17.42
2023-04-13T14:55:19.510Z,17.31
2023-04-13T14:57:47.174Z,17.28
2023-04-13T15:00:21.849Z,17.24
2023-04-13T15:02:52.659Z,17.20
2023-04-13T15:05:20.394Z,17.15
2023-04-13T15:07:48.507Z,17.12
2023-04-13T15:10:16.246Z,17.06
2023-04-13T15:12:43.553Z,17.05
2023-04-13T15:15:10.850Z,16.98
2023-04-13T15:17:38.037Z,16.90
2023-04-13T15:20:07.503Z,16.90
2023-04-13T15:22:36.272Z,16.85
2023-04-13T15:25:03.516Z,16.85
2023-04-13T15:27:30.993Z,16.83
2023-04-13T15:29:59.184Z,16.77
2023-04-13T15:32:26.426Z,16.79
2023-04-13T15:34:53.786Z,16.79
2023-04-13T15:37:21.227Z,16.66
2023-04-13T15:39:47.985Z,16.66
2023-04-13T15:42:15.679Z,16.68
2023-04-13T15:44:42.907Z,16.66
2023-04-13T15:47:09.945Z,16.66
2023-04-13T15:49:36.712Z,16.61
2023-04-13T15:52:04.199Z,16.50
2023-04-13T15:54:31.304Z,16.53
2023-04-13T15:56:58.459Z,16.49
2023-04-13T15:59:26.895Z,16.43
2023-04-13T16:01:54.175Z,16.45
2023-04-13T16:04:21.459Z,16.42
2023-04-13T16:07:05.084Z,16.38
2023-04-13T16:09:36.735Z,16.33
2023-04-13T16:12:07.772Z,16.29
2023-04-13T16:14:45.076Z,16.24
2023-04-13T16:17:14.837Z,16.24
2023-04-13T16:19:42.633Z,16.20
2023-04-13T16:22:10.557Z,16.11
2023-04-13T16:24:37.880Z,16.05
2023-04-13T16:27:05.064Z,16.04
2023-04-13T16:29:32.666Z,15.98
2023-04-13T16:31:59.828Z,15.92
2023-04-13T16:34:27.929Z,15.91
2023-04-13T16:36:55.040Z,15.91
2023-04-13T16:39:22.491Z,15.85
2023-04-13T16:41:50.212Z,15.83
2023-04-13T16:44:17.134Z,15.82
2023-04-13T16:46:44.289Z,15.76
2023-04-13T16:49:11.386Z,15.76
2023-04-13T16:51:38.465Z,15.71
2023-04-13T16:54:06.525Z,15.69
2023-04-13T16:56:33.682Z,15.61
2023-04-13T16:59:01.507Z,15.64
2023-04-13T17:01:29.472Z,15.61
2023-04-13T17:03:56.693Z,15.60
2023-04-13T17:06:23.872Z,15.57
2023-04-13T17:08:50.776Z,15.54
2023-04-13T17:11:17.936Z,15.51
2023-04-13T17:13:44.942Z,15.44
2023-04-13T17:16:12.105Z,15.42
2023-04-13T17:18:39.021Z,15.44
2023-04-13T17:21:06.148Z,15.43
2023-04-13T17:23:32.943Z,15.44
2023-04-13T17:26:00.119Z,15.36
2023-04-13T17:28:27.154Z,15.35
2023-04-13T17:30:54.433Z,15.33
2023-04-13T17:33:21.396Z,15.38
2023-04-13T17:35:53.593Z,15.40
2023-04-13T17:38:20.432Z,15.41
2023-04-13T17:40:47.578Z,15.38
2023-04-13T17:43:14.648Z,15.34
2023-04-13T17:45:42.029Z,15.28
2023-04-13T17:48:08.919Z,15.31
2023-04-13T17:50:36.010Z,15.24
2023-04-13T17:53:04.243Z,15.25
2023-04-13T17:55:31.558Z,15.23
2023-04-13T17:57:58.317Z,15.20
2023-04-13T18:00:27.763Z,15.17
2023-04-13T18:02:55.163Z,15.15
2023-04-13T18:05:22.437Z,15.17
2023-04-13T18:07:49.478Z,15.11
2023-04-13T18:10:16.709Z,15.11
2023-04-13T18:12:43.622Z,15.09
2023-04-13T18:15:10.868Z,15.09
2023-04-13T18:17:38.184Z,15.07
2023-04-13T18:20:06.034Z,15.06
2023-04-13T18:22:32.948Z,15.03
2023-04-13T18:25:00.325Z,14.98
2023-04-13T18:27:27.740Z,14.92
2023-04-13T18:29:55.265Z,14.90
2023-04-13T18:32:25.117Z,14.90
2023-04-13T18:34:52.348Z,14.89
2023-04-13T18:37:19.270Z,14.82
2023-04-13T18:39:46.538Z,14.87
2023-04-13T18:42:13.415Z,14.84
2023-04-13T18:44:40.592Z,14.86
2023-04-13T18:47:07.385Z,14.84
2023-04-13T18:49:34.459Z,14.79
2023-04-13T18:52:01.430Z,14.81
2023-04-13T18:54:29.425Z,14.74
2023-04-13T18:56:56.230Z,14.75
2023-04-13T18:59:23.308Z,14.73
2023-04-13T19:01:50.215Z,14.71
2023-04-13T19:04:17.560Z,14.65
2023-04-13T19:06:44.456Z,14.64
2023-04-13T19:09:11.596Z,14.67
2023-04-13T19:11:46.413Z,14.67
2023-04-13T19:14:13.551Z,14.63
2023-04-13T19:16:41.590Z,14.62
2023-04-13T19:19:08.958Z,14.59
2023-04-13T19:21:35.750Z,14.60
2023-04-13T19:24:02.992Z,14.61
2023-04-13T19:26:30.544Z,14.60
2023-04-13T19:28:57.741Z,14.55
2023-04-13T19:31:24.597Z,14.57
2023-04-13T19:33:51.862Z,14.51
2023-04-13T19:36:18.624Z,14.52
2023-04-13T19:38:47.072Z,14.49
2023-04-13T19:41:13.927Z,14.46
2023-04-13T19:43:41.204Z,14.45
2023-04-13T19:46:08.036Z,14.45
2023-04-13T19:48:35.433Z,14.44
2023-04-13T19:51:02.766Z,14.44
2023-04-13T19:53:29.868Z,14.33
2023-04-13T19:55:57.050Z,14.39
2023-04-13T19:58:24.176Z,14.38
2023-04-13T20:00:50.928Z,14.35
2023-04-13T20:03:20.299Z,14.32
2023-04-13T20:05:48.176Z,14.30
2023-04-13T20:08:16.498Z,14.31
2023-04-13T20:10:43.383Z,14.26
2023-04-13T20:13:10.976Z,14.27
2023-04-13T20:15:37.934Z,14.20
2023-04-13T20:18:07.321Z,14.16
2023-04-13T20:20:35.715Z,14.20
2023-04-13T20:23:02.873Z,14.20
2023-04-13T20:25:29.679Z,14.19
2023-04-13T20:27:56.956Z,14.21
2023-04-13T20:30:24.067Z,14.22
2023-04-13T20:32:51.222Z,14.15
2023-04-13T20:35:18.022Z,14.15
2023-04-13T20:37:45.170Z,14.09
2023-04-13T20:40:12.057Z,14.08
2023-04-13T20:42:45.315Z,14.14
2023-04-13T20:45:15.123Z,14.03
2023-04-13T20:47:42.686Z,13.95
2023-04-13T20:50:10.504Z,14.04
2023-04-13T20:52:37.644Z,14.05
2023-04-13T20:55:04.620Z,14.01
2023-04-13T20:57:31.824Z,14.02
2023-04-13T20:59:58.626Z,14.00
2023-04-13T21:02:26.187Z,13.96
2023-04-13T21:04:54.011Z,13.96
2023-04-13T21:07:22.296Z,13.93
2023-04-13T21:09:49.071Z,13.92
2023-04-13T21:12:17.058Z,13.90
2023-04-13T21:14:43.815Z,13.88
2023-04-13T21:17:11.774Z,13.85
2023-04-13T21:19:38.551Z,13.90
2023-04-13T21:22:06.111Z,13.80
2023-04-13T21:24:32.885Z,13.78
2023-04-13T21:27:00.034Z,13.82
2023-04-13T21:29:26.898Z,13.83
2023-04-13T21:31:54.009Z,13.84
2023-04-13T21:34:22.557Z,13.81
2023-04-13T21:36:51.638Z,13.83
2023-04-13T21:39:18.774Z,13.79
2023-04-13T21:41:45.933Z,13.78
2023-04-13T21:44:26.490Z,13.70
2023-04-13T21:46:55.958Z,13.64
2023-04-13T21:49:22.886Z,13.75
2023-04-13T21:51:50.049Z,13.76
2023-04-13T21:54:16.810Z,13.69
2023-04-13T21:56:43.898Z,13.69
2023-04-13T21:59:10.688Z,13.70
2023-04-13T22:01:37.813Z,13.73
2023-04-13T22:04:04.762Z,13.72
2023-04-13T22:06:32.691Z,13.68
2023-04-13T22:08:59.759Z,13.67
2023-04-13T22:11:27.161Z,13.63
2023-04-13T22:13:53.935Z,13.67
2023-04-13T22:16:21.142Z,13.64
2023-04-13T22:18:48.025Z,13.57
2023-04-13T22:21:15.396Z,13.58
2023-04-13T22:23:42.183Z,13.61
2023-04-13T22:26:09.241Z,13.58
2023-04-13T22:28:36.025Z,13.50
2023-04-13T22:31:09.308Z,13.55
2023-04-13T22:33:36.526Z,13.57
2023-04-13T22:36:04.624Z,13.46
2023-04-13T22:38:31.441Z,13.48
2023-04-13T22:40:58.547Z,13.53
2023-04-13T22:43:25.379Z,13.46
2023-04-13T22:45:58.965Z,13.47
2023-04-13T22:48:26.979Z,13.41
2023-04-13T22:50:54.176Z,13.47
2023-04-13T22:53:21.040Z,13.44
2023-04-13T22:55:48.081Z,13.45
2023-04-13T22:58:14.829Z,13.44
2023-04-13T23:00:41.882Z,13.43
2023-04-13T23:03:08.746Z,13.42
2023-04-13T23:05:35.949Z,13.42
2023-04-13T23:08:02.794Z,13.38
2023-04-13T23:10:31.677Z,13.38
2023-04-13T23:12:58.569Z,13.39
2023-04-13T23:15:25.726Z,13.39
2023-04-13T23:20:40.625Z,13.30
2023-04-13T23:23:07.378Z,13.38
2023-04-13T23:25:34.525Z,13.34
2023-04-13T23:28:01.273Z,13.32
2023-04-13T23:30:28.410Z,13.33
2023-04-13T23:32:55.645Z,13.29
2023-04-13T23:35:22.748Z,13.25
2023-04-13T23:37:49.518Z,13.29
2023-04-13T23:40:16.678Z,13.28
2023-04-13T23:42:43.414Z,13.23
2023-04-13T23:45:10.918Z,13.24
2023-04-13T23:47:38.050Z,13.26
2023-04-13T23:50:06.193Z,13.27
2023-04-13T23:52:33.137Z,13.21
2023-04-13T23:55:00.212Z,13.25
2023-04-13T23:57:27.089Z,13.16
2023-04-13T23:59:57.369Z,13.13
